createdAt,value
2019-03-08T00:02:23.774Z,99683.88
2019-03-08T00:04:51.967Z,99681.23
2019-03-08T00:07:20.133Z,99685.11
2019-03-08T00:09:48.647Z,99686.39
2019-03-08T00:12:16.821Z,99681.77
2019-03-08T00:14:45.009Z,99689.20
2019-03-08T00:17:13.194Z,99689.78
2019-03-08T00:19:41.353Z,99684.67
2019-03-08T00:22:09.582Z,99695.06
2019-03-08T00:24:37.845Z,99686.89
2019-03-08T00:27:06.005Z,99692.42
2019-03-08T00:29:34.177Z,99691.05
2019-03-08T00:32:02.364Z,99701.45
2019-03-08T00:34:30.525Z,99704.97
2019-03-08T00:36:58.714Z,99704.06
2019-03-08T00:39:27.136Z,99702.88
2019-03-08T00:41:55.497Z,99713.79
2019-03-08T00:44:23.657Z,99716.77
2019-03-08T00:46:51.817Z,99725.30
2019-03-08T00:49:20.010Z,99725.67
2019-03-08T00:51:48.165Z,99729.47
2019-03-08T00:54:16.324Z,99729.34
2019-03-08T00:56:44.694Z,99728.60
2019-03-08T00:59:12.854Z,99732.72
2019-03-08T01:01:41.034Z,99728.22
2019-03-08T01:04:09.237Z,99739.64
2019-03-08T01:06:37.648Z,99735.72
2019-03-08T01:09:07.875Z,99744.22
2019-03-08T01:11:36.329Z,99743.00
2019-03-08T01:14:04.567Z,99744.58
2019-03-08T01:16:32.814Z,99739.49
2019-03-08T01:19:00.993Z,99746.98
2019-03-08T01:21:29.156Z,99740.77
2019-03-08T01:23:57.343Z,99746.77
2019-03-08T01:26:25.901Z,99756.17
2019-03-08T01:28:54.085Z,99757.82
2019-03-08T01:31:22.241Z,99752.88
2019-03-08T01:33:50.431Z,99764.90
2019-03-08T01:36:18.594Z,99765.64
2019-03-08T01:38:46.764Z,99772.44
2019-03-08T01:41:14.930Z,99777.00
2019-03-08T01:43:43.113Z,99773.02
2019-03-08T01:46:11.590Z,99777.84
2019-03-08T01:48:39.776Z,99777.47
2019-03-08T01:51:10.605Z,99776.20
2019-03-08T01:53:38.785Z,99787.56
2019-03-08T01:56:07.330Z,99777.21
2019-03-08T01:58:35.521Z,99785.44
2019-03-08T02:01:03.767Z,99785.00
2019-03-08T02:03:31.960Z,99787.14
2019-03-08T02:06:00.150Z,99782.77
2019-03-08T02:08:28.315Z,99783.00
2019-03-08T02:10:57.002Z,99787.52
2019-03-08T02:13:25.189Z,99785.42
2019-03-08T02:15:53.373Z,99795.92
2019-03-08T02:18:21.556Z,99791.06
2019-03-08T02:20:49.717Z,99785.06
2019-03-08T02:23:17.892Z,99792.38
2019-03-08T02:25:46.060Z,99784.00
2019-03-08T02:28:14.243Z,99793.41
2019-03-08T02:30:42.472Z,99783.53
2019-03-08T02:33:10.673Z,99782.73
2019-03-08T02:35:38.905Z,99795.03
2019-03-08T02:38:07.134Z,99786.84
2019-03-08T02:40:36.751Z,99793.33
2019-03-08T02:43:10.784Z,99795.92
2019-03-08T02:45:39.311Z,99799.12
2019-03-08T02:48:07.490Z,99799.23
2019-03-08T02:50:35.679Z,99806.77
2019-03-08T02:53:04.674Z,99819.08
2019-03-08T02:55:33.072Z,99820.88
2019-03-08T02:58:01.503Z,99813.19
2019-03-08T03:00:33.057Z,99810.34
2019-03-08T03:03:01.237Z,99823.06
2019-03-08T03:05:29.399Z,99828.84
2019-03-08T03:07:57.637Z,99834.39
2019-03-08T03:10:25.831Z,99838.73
2019-03-08T03:12:54.330Z,99835.13
2019-03-08T03:15:22.537Z,99842.55
2019-03-08T03:17:50.693Z,99843.08
2019-03-08T03:20:18.941Z,99848.66
2019-03-08T03:22:47.097Z,99847.00
2019-03-08T03:25:15.937Z,99851.08
2019-03-08T03:27:44.089Z,99854.09
2019-03-08T03:30:15.057Z,99855.77
2019-03-08T03:32:43.612Z,99859.71
2019-03-08T03:35:11.859Z,99863.16
2019-03-08T03:37:40.030Z,99862.51
2019-03-08T03:40:16.794Z,99864.05
2019-03-08T03:42:44.954Z,99869.66
2019-03-08T03:45:18.720Z,99874.14
2019-03-08T03:47:46.958Z,99873.69
2019-03-08T03:50:15.689Z,99878.84
2019-03-08T03:52:43.871Z,99884.03
2019-03-08T03:55:14.183Z,99876.64
2019-03-08T03:57:42.353Z,99890.92
2019-03-08T04:00:16.417Z,99880.09
2019-03-08T04:02:44.651Z,99891.94
2019-03-08T04:05:13.306Z,99900.08
2019-03-08T04:07:41.488Z,99902.02
2019-03-08T04:10:12.302Z,99898.77
2019-03-08T04:12:40.466Z,99906.22
2019-03-08T04:15:11.661Z,99902.44
2019-03-08T04:17:39.825Z,99905.05
2019-03-08T04:20:16.467Z,99905.25
2019-03-08T04:22:44.959Z,99920.31
2019-03-08T04:25:14.274Z,99921.30
2019-03-08T04:27:42.509Z,99924.14
2019-03-08T04:30:15.793Z,99928.08
2019-03-08T04:32:44.301Z,99933.11
2019-03-08T04:35:12.458Z,99936.86
2019-03-08T04:37:41.055Z,99939.75
2019-03-08T04:40:11.156Z,99940.17
2019-03-08T04:42:39.410Z,99948.89
2019-03-08T04:45:16.042Z,99946.64
2019-03-08T04:47:44.918Z,99953.01
2019-03-08T04:50:15.078Z,99955.78
2019-03-08T04:52:43.257Z,99962.00
2019-03-08T04:55:14.129Z,99978.06
2019-03-08T04:57:42.304Z,99978.31
2019-03-08T05:00:15.521Z,99981.69
2019-03-08T05:02:43.689Z,99990.09
2019-03-08T05:05:12.014Z,99996.27
2019-03-08T05:07:40.227Z,100007.63
2019-03-08T05:10:16.308Z,100013.97
2019-03-08T05:12:44.570Z,100016.94
2019-03-08T05:15:13.152Z,100019.46
2019-03-08T05:17:41.430Z,100033.67
2019-03-08T05:20:10.650Z,100035.80
2019-03-08T05:22:38.896Z,100043.28
2019-03-08T05:25:10.003Z,100058.20
2019-03-08T05:27:38.251Z,100060.41
2019-03-08T05:30:16.647Z,100081.97
2019-03-08T05:32:44.956Z,100070.09
2019-03-08T05:35:14.490Z,100083.31
2019-03-08T05:37:42.722Z,100098.50
2019-03-08T05:40:13.048Z,100095.75
2019-03-08T05:42:41.201Z,100123.02
2019-03-08T05:45:11.125Z,100118.39
2019-03-08T05:47:39.312Z,100122.03
2019-03-08T05:50:09.247Z,100131.86
2019-03-08T05:52:37.414Z,100136.23
2019-03-08T05:55:10.955Z,100127.16
2019-03-08T05:57:39.434Z,100134.25
2019-03-08T06:00:13.904Z,100143.52
2019-03-08T06:02:42.078Z,100152.97
2019-03-08T06:05:10.328Z,100160.98
2019-03-08T06:07:38.777Z,100161.44
2019-03-08T06:10:36.742Z,100171.17
2019-03-08T06:13:08.186Z,100179.75
2019-03-08T06:15:36.377Z,100178.41
2019-03-08T06:18:04.766Z,100183.41
2019-03-08T06:20:33.238Z,100187.92
2019-03-08T06:23:01.715Z,100198.70
2019-03-08T06:25:29.888Z,100206.09
2019-03-08T06:27:58.164Z,100211.31
2019-03-08T06:30:26.350Z,100210.11
2019-03-08T06:32:54.630Z,100216.95
2019-03-08T06:35:22.835Z,100222.55
2019-03-08T06:37:51.001Z,100230.17
2019-03-08T06:40:19.202Z,100227.52
2019-03-08T06:42:47.385Z,100230.00
2019-03-08T06:45:17.690Z,100234.09
2019-03-08T06:47:46.477Z,100233.67
2019-03-08T06:50:15.697Z,100239.94
2019-03-08T06:52:43.960Z,100254.00
2019-03-08T06:55:14.265Z,100264.00
2019-03-08T06:57:42.785Z,100267.98
2019-03-08T07:00:15.928Z,100281.34
2019-03-08T07:02:44.093Z,100286.44
2019-03-08T07:05:12.285Z,100295.61
2019-03-08T07:07:41.596Z,100293.16
2019-03-08T07:10:09.771Z,100306.80
2019-03-08T07:12:37.950Z,100319.28
2019-03-08T07:15:06.906Z,100324.39
2019-03-08T07:17:35.545Z,100335.87
2019-03-08T07:20:05.834Z,100350.27
2019-03-08T07:22:50.975Z,100360.97
2019-03-08T07:25:20.813Z,100371.59
2019-03-08T07:27:51.077Z,100374.52
2019-03-08T07:30:23.667Z,100378.66
2019-03-08T07:32:53.556Z,100373.84
2019-03-08T07:35:35.746Z,100379.50
2019-03-08T07:38:22.109Z,100390.04
2019-03-08T07:40:51.939Z,100398.38
2019-03-08T07:43:33.646Z,100411.00
2019-03-08T07:46:09.403Z,100413.91
2019-03-08T07:48:45.189Z,100420.88
2019-03-08T07:51:17.742Z,100430.80
2019-03-08T07:53:47.651Z,100435.80
2019-03-08T07:56:17.476Z,100439.59
2019-03-08T07:59:02.877Z,100444.94
2019-03-08T08:01:32.733Z,100449.51
2019-03-08T08:04:20.087Z,100457.36
2019-03-08T08:06:58.714Z,100459.02
2019-03-08T08:09:44.837Z,100460.53
2019-03-08T08:12:26.958Z,100458.73
2019-03-08T08:15:03.064Z,100464.13
2019-03-08T08:17:50.951Z,100467.88
2019-03-08T08:20:32.893Z,100464.66
2019-03-08T08:23:02.823Z,100477.09
2019-03-08T08:25:36.785Z,100473.19
2019-03-08T08:28:19.457Z,100478.05
2019-03-08T08:30:58.334Z,100496.02
2019-03-08T08:33:33.931Z,100499.49
2019-03-08T08:36:09.462Z,100502.77
2019-03-08T08:41:26.760Z,100515.84
2019-03-08T08:44:08.329Z,100522.00
2019-03-08T08:46:53.145Z,100524.70
2019-03-08T08:49:22.961Z,100535.06
2019-03-08T08:52:07.758Z,100541.37
2019-03-08T08:54:37.906Z,100548.08
2019-03-08T08:57:07.745Z,100553.13
2019-03-08T08:59:40.730Z,100550.27
2019-03-08T09:02:13.517Z,100547.88
2019-03-08T09:04:58.625Z,100543.41
2019-03-08T09:07:31.217Z,100554.14
2019-03-08T09:10:19.483Z,100552.90
2019-03-08T09:12:55.023Z,100551.44
2019-03-08T09:15:37.050Z,100557.64
2019-03-08T09:18:16.143Z,100558.77
2019-03-08T09:21:02.386Z,100549.98
2019-03-08T09:23:38.134Z,100569.02
2019-03-08T09:26:23.881Z,100595.16
2019-03-08T09:29:02.742Z,100594.31
2019-03-08T09:31:50.786Z,100600.06
2019-03-08T09:34:37.461Z,100603.83
2019-03-08T09:37:07.294Z,100610.58
2019-03-08T09:39:46.286Z,100613.14
2019-03-08T09:42:16.107Z,100617.42
2019-03-08T09:45:02.200Z,100621.57
2019-03-08T09:47:48.594Z,100618.59
2019-03-08T09:50:18.430Z,100625.52
2019-03-08T09:52:50.941Z,100622.83
2019-03-08T09:55:32.535Z,100638.86
2019-03-08T09:58:04.820Z,100627.86
2019-03-08T10:00:34.781Z,100630.43
2019-03-08T10:03:16.634Z,100634.41
2019-03-08T10:05:46.478Z,100640.73
2019-03-08T10:08:19.275Z,100651.45
2019-03-08T10:10:49.158Z,100650.56
2019-03-08T10:13:21.853Z,100647.81
2019-03-08T10:15:57.794Z,100653.33
2019-03-08T10:18:40.320Z,100659.67
2019-03-08T10:21:12.681Z,100657.78
2019-03-08T10:23:42.533Z,100650.95
2019-03-08T10:26:12.342Z,100650.09
2019-03-08T10:28:45.085Z,100655.30
2019-03-08T10:31:24.099Z,100658.14
2019-03-08T10:34:02.977Z,100668.72
2019-03-08T10:36:35.557Z,100683.23
2019-03-08T10:39:09.693Z,100687.70
2019-03-08T10:41:42.225Z,100687.00
2019-03-08T10:44:15.582Z,100695.83
2019-03-08T10:46:51.317Z,100701.30
2019-03-08T10:49:23.789Z,100702.59
2019-03-08T10:52:17.381Z,100707.80
2019-03-08T10:54:40.474Z,100713.70
2019-03-08T10:57:16.278Z,100738.72
2019-03-08T10:59:48.763Z,100720.59
2019-03-08T11:02:27.982Z,100741.95
2019-03-08T11:05:00.772Z,100747.15
2019-03-08T11:07:33.400Z,100747.42
2019-03-08T11:10:05.882Z,100742.88
2019-03-08T11:12:35.722Z,100754.22
2019-03-08T11:15:26.321Z,100753.81
2019-03-08T11:17:59.106Z,100759.39
2019-03-08T11:20:48.660Z,100761.25
2019-03-08T11:23:34.589Z,100769.82
2019-03-08T11:26:20.289Z,100780.98
2019-03-08T11:28:59.376Z,100749.13
2019-03-08T11:31:47.639Z,100753.73
2019-03-08T11:34:36.174Z,100753.52
2019-03-08T11:37:06.295Z,100759.48
2019-03-08T11:39:36.162Z,100747.33
2019-03-08T11:42:08.879Z,100751.35
2019-03-08T11:44:55.170Z,100752.92
2019-03-08T11:47:27.737Z,100758.87
2019-03-08T11:50:06.162Z,100754.74
2019-03-08T11:52:44.764Z,100752.81
2019-03-08T11:55:23.753Z,100753.95
2019-03-08T11:58:02.853Z,100755.97
2019-03-08T12:00:44.903Z,100759.92
2019-03-08T12:03:15.265Z,100757.12
2019-03-08T12:05:49.865Z,100768.78
2019-03-08T12:08:31.647Z,100771.28
2019-03-08T12:11:16.564Z,100773.91
2019-03-08T12:14:02.798Z,100775.81
2019-03-08T12:16:38.755Z,100774.82
2019-03-08T12:19:08.865Z,100776.28
2019-03-08T12:21:55.592Z,100777.45
2019-03-08T12:24:25.501Z,100781.77
2019-03-08T12:26:55.422Z,100783.44
2019-03-08T12:29:34.277Z,100783.81
2019-03-08T12:32:04.119Z,100781.50
2019-03-08T12:34:42.973Z,100773.41
2019-03-08T12:37:12.801Z,100774.84
2019-03-08T12:39:48.895Z,100778.53
2019-03-08T12:42:18.729Z,100784.32
2019-03-08T12:44:51.250Z,100783.48
2019-03-08T12:47:36.134Z,100786.41
2019-03-08T12:50:13.759Z,100780.02
2019-03-08T12:52:52.656Z,100782.89
2019-03-08T12:55:37.112Z,100785.22
2019-03-08T12:58:13.109Z,100782.48
2019-03-08T13:00:58.881Z,100786.55
2019-03-08T13:03:45.453Z,100786.94
2019-03-08T13:06:18.066Z,100771.12
2019-03-08T13:08:53.790Z,100776.63
2019-03-08T13:11:21.977Z,100767.84
2019-03-08T13:13:50.703Z,100775.98
2019-03-08T13:16:19.080Z,100773.60
2019-03-08T13:18:47.274Z,100775.66
2019-03-08T13:21:15.484Z,100779.98
2019-03-08T13:23:43.742Z,100778.23
2019-03-08T13:26:11.925Z,100772.67
2019-03-08T13:28:40.107Z,100773.45
2019-03-08T13:31:08.566Z,100766.89
2019-03-08T13:33:36.773Z,100774.37
2019-03-08T13:36:05.217Z,100781.95
2019-03-08T13:38:33.419Z,100788.19
2019-03-08T13:41:01.641Z,100787.21
2019-03-08T13:43:29.830Z,100782.98
2019-03-08T13:45:58.302Z,100781.37
2019-03-08T13:48:26.477Z,100784.11
2019-03-08T13:50:54.678Z,100789.53
2019-03-08T13:53:22.867Z,100791.24
2019-03-08T13:55:51.060Z,100793.98
2019-03-08T13:58:19.234Z,100796.30
2019-03-08T14:00:47.702Z,100792.89
2019-03-08T14:03:16.157Z,100795.02
2019-03-08T14:05:44.622Z,100797.26
2019-03-08T14:08:12.826Z,100802.55
2019-03-08T14:10:41.283Z,100798.57
2019-03-08T14:13:09.768Z,100791.86
2019-03-08T14:15:38.242Z,100783.75
2019-03-08T14:18:06.409Z,100783.34
2019-03-08T14:20:34.681Z,100779.94
2019-03-08T14:23:02.870Z,100785.91
2019-03-08T14:25:31.343Z,100785.40
2019-03-08T14:27:59.518Z,100780.30
2019-03-08T14:30:32.144Z,100776.85
2019-03-08T14:33:01.585Z,100776.91
2019-03-08T14:35:30.788Z,100774.41
2019-03-08T14:37:59.377Z,100767.67
2019-03-08T14:40:29.223Z,100764.53
2019-03-08T14:43:02.380Z,100767.27
2019-03-08T14:45:32.242Z,100770.44
2019-03-08T14:48:00.432Z,100767.05
2019-03-08T14:50:31.872Z,100759.50
2019-03-08T14:52:58.863Z,100758.81
2019-03-08T14:55:27.350Z,100759.17
2019-03-08T14:57:58.820Z,100762.77
2019-03-08T15:00:29.119Z,100769.11
2019-03-08T15:02:55.362Z,100764.95
2019-03-08T15:05:23.567Z,100761.91
2019-03-08T15:07:51.761Z,100771.02
2019-03-08T15:10:20.369Z,100777.31
2019-03-08T15:12:49.472Z,100772.47
2019-03-08T15:15:17.877Z,100777.35
2019-03-08T15:17:49.747Z,100782.48
2019-03-08T15:20:17.918Z,100783.16
2019-03-08T15:22:46.487Z,100783.53
2019-03-08T15:25:15.990Z,100783.90
2019-03-08T15:27:44.200Z,100789.19
2019-03-08T15:30:17.837Z,100786.48
2019-03-08T15:32:46.281Z,100783.27
2019-03-08T15:35:16.760Z,100781.02
2019-03-08T15:37:45.273Z,100778.24
2019-03-08T15:40:21.314Z,100783.80
2019-03-08T15:42:49.962Z,100780.66
2019-03-08T15:45:18.303Z,100778.18
2019-03-08T15:47:46.777Z,100784.28
2019-03-08T15:50:20.491Z,100782.05
2019-03-08T15:52:48.753Z,100780.02
2019-03-08T15:55:17.031Z,100784.81
2019-03-08T15:57:45.462Z,100786.42
2019-03-08T16:00:21.249Z,100789.52
2019-03-08T16:02:49.899Z,100791.38
2019-03-08T16:05:19.163Z,100798.08
2019-03-08T16:07:47.349Z,100795.72
2019-03-08T16:10:19.684Z,100789.58
2019-03-08T16:12:47.942Z,100797.99
2019-03-08T16:15:16.582Z,100798.00
2019-03-08T16:17:44.832Z,100793.47
2019-03-08T16:20:18.609Z,100799.58
2019-03-08T16:22:46.797Z,100797.77
2019-03-08T16:25:18.065Z,100793.54
2019-03-08T16:27:46.264Z,100790.45
2019-03-08T16:30:18.228Z,100786.86
2019-03-08T16:32:57.141Z,100795.31
2019-03-08T16:35:27.089Z,100794.29
2019-03-08T16:38:13.266Z,100804.36
2019-03-08T16:40:42.857Z,100805.66
2019-03-08T16:43:18.434Z,100809.95
2019-03-08T16:45:54.530Z,100816.40
2019-03-08T16:48:21.893Z,100828.22
2019-03-08T16:51:00.302Z,100825.62
2019-03-08T16:53:37.573Z,100833.44
2019-03-08T16:56:11.894Z,100823.44
2019-03-08T16:58:41.722Z,100828.73
2019-03-08T17:01:23.683Z,100831.23
2019-03-08T17:03:58.949Z,100831.39
2019-03-08T17:06:31.724Z,100821.20
2019-03-08T17:09:07.529Z,100820.20
2019-03-08T17:11:40.305Z,100810.61
2019-03-08T17:14:19.153Z,100806.41
2019-03-08T17:16:52.003Z,100806.44
2019-03-08T17:19:27.693Z,100797.76
2019-03-08T17:21:57.521Z,100795.70
2019-03-08T17:24:36.266Z,100808.98
2019-03-08T17:27:12.550Z,100816.88
2019-03-08T17:29:45.343Z,100822.25
2019-03-08T17:32:17.625Z,100818.95
2019-03-08T17:34:56.493Z,100830.66
2019-03-08T17:37:29.078Z,100832.87
2019-03-08T17:39:58.961Z,100833.27
2019-03-08T17:42:43.769Z,100838.78
2019-03-08T17:45:29.254Z,100845.03
2019-03-08T17:48:08.037Z,100846.16
2019-03-08T17:50:37.864Z,100850.22
2019-03-08T17:53:16.922Z,100849.03
2019-03-08T17:55:47.005Z,100854.34
2019-03-08T17:58:33.042Z,100853.27
2019-03-08T18:01:19.441Z,100857.08
2019-03-08T18:03:49.547Z,100858.27
2019-03-08T18:06:22.077Z,100857.30
2019-03-08T18:08:51.903Z,100856.41
2019-03-08T18:11:27.546Z,100859.33
2019-03-08T18:14:00.070Z,100853.36
2019-03-08T18:16:46.450Z,100848.97
2019-03-08T18:19:18.989Z,100853.91
2019-03-08T18:21:55.297Z,100852.47
2019-03-08T18:24:37.397Z,100854.16
2019-03-08T18:27:25.311Z,100856.71
2019-03-08T18:30:11.614Z,100857.93
2019-03-08T18:32:50.305Z,100856.57
2019-03-08T18:35:20.133Z,100855.16
2019-03-08T18:38:06.222Z,100858.94
2019-03-08T18:40:54.421Z,100860.08
2019-03-08T18:43:33.258Z,100854.47
2019-03-08T18:46:18.693Z,100852.48
2019-03-08T18:48:54.230Z,100848.30
2019-03-08T18:51:33.289Z,100844.30
2019-03-08T18:54:03.100Z,100851.53
2019-03-08T18:56:47.657Z,100855.98
2019-03-08T18:59:17.471Z,100852.86
2019-03-08T19:02:05.513Z,100848.80
2019-03-08T19:04:38.021Z,100849.84
2019-03-08T19:07:24.814Z,100852.81
2019-03-08T19:09:54.626Z,100854.10
2019-03-08T19:12:24.429Z,100851.79
2019-03-08T19:15:12.652Z,100852.75
2019-03-08T19:17:57.381Z,100841.70
2019-03-08T19:20:38.970Z,100844.59
2019-03-08T19:23:17.321Z,100848.22
2019-03-08T19:26:03.097Z,100844.36
2019-03-08T19:28:49.665Z,100857.73
2019-03-08T19:31:25.469Z,100850.17
2019-03-08T19:34:01.465Z,100851.81
2019-03-08T19:36:31.473Z,100846.78
2019-03-08T19:39:17.592Z,100848.87
2019-03-08T19:41:47.429Z,100834.84
2019-03-08T19:44:29.478Z,100834.77
2019-03-08T19:47:11.302Z,100828.97
2019-03-08T19:49:41.119Z,100828.49
2019-03-08T19:52:27.445Z,100822.74
2019-03-08T19:54:57.262Z,100824.90
2019-03-08T19:57:32.851Z,100821.89
2019-03-08T20:00:17.839Z,100820.22
2019-03-08T20:02:47.670Z,100818.27
2019-03-08T20:05:22.969Z,100813.35
2019-03-08T20:07:55.750Z,100816.05
2019-03-08T20:10:34.457Z,100811.47
2019-03-08T20:13:07.245Z,100808.82
2019-03-08T20:15:37.390Z,100809.78
2019-03-08T20:18:07.971Z,100808.77
2019-03-08T20:20:46.886Z,100807.00
2019-03-08T20:23:16.713Z,100805.08
2019-03-08T20:25:52.477Z,100802.30
2019-03-08T20:28:25.414Z,100800.88
2019-03-08T20:30:57.686Z,100801.35
2019-03-08T20:33:39.448Z,100798.38
2019-03-08T20:36:21.227Z,100787.48
2019-03-08T20:38:59.819Z,100787.65
2019-03-08T20:41:32.617Z,100784.17
2019-03-08T20:44:05.441Z,100791.59
2019-03-08T20:46:38.330Z,100789.47
2019-03-08T20:49:06.789Z,100797.62
2019-03-08T20:51:34.964Z,100789.09
2019-03-08T20:54:03.542Z,100784.41
2019-03-08T20:56:31.789Z,100781.47
2019-03-08T20:58:59.981Z,100776.77
2019-03-08T21:01:28.162Z,100772.77
2019-03-08T21:03:56.378Z,100762.27
2019-03-08T21:06:24.818Z,100751.78
2019-03-08T21:08:53.293Z,100741.97
2019-03-08T21:11:21.485Z,100741.03
2019-03-08T21:13:50.058Z,100750.52
2019-03-08T21:16:18.242Z,100740.46
2019-03-08T21:18:46.418Z,100734.55
2019-03-08T21:21:14.611Z,100732.88
2019-03-08T21:23:42.776Z,100737.66
2019-03-08T21:26:10.957Z,100737.89
2019-03-08T21:28:39.517Z,100733.83
2019-03-08T21:31:07.710Z,100727.28
2019-03-08T21:33:35.909Z,100724.81
2019-03-08T21:36:04.337Z,100726.51
2019-03-08T21:38:32.542Z,100720.23
2019-03-08T21:41:00.732Z,100712.34
2019-03-08T21:43:28.897Z,100716.06
2019-03-08T21:45:57.077Z,100713.98
2019-03-08T21:48:25.293Z,100713.70
2019-03-08T21:50:53.495Z,100706.86
2019-03-08T21:53:21.694Z,100699.85
2019-03-08T21:55:49.877Z,100706.25
2019-03-08T21:58:18.117Z,100691.87
2019-03-08T22:00:46.350Z,100695.69
2019-03-08T22:03:14.546Z,100688.95
2019-03-08T22:05:42.765Z,100690.98
2019-03-08T22:08:17.430Z,100679.84
2019-03-08T22:10:48.431Z,100679.33
2019-03-08T22:13:16.955Z,100675.48
2019-03-08T22:15:45.149Z,100664.45
2019-03-08T22:18:13.340Z,100657.98
2019-03-08T22:20:41.530Z,100659.61
2019-03-08T22:23:09.707Z,100648.41
2019-03-08T22:25:37.868Z,100649.96
2019-03-08T22:28:06.060Z,100652.30
2019-03-08T22:30:34.230Z,100650.15
2019-03-08T22:33:02.412Z,100649.36
2019-03-08T22:35:30.917Z,100642.73
2019-03-08T22:37:59.117Z,100633.09
2019-03-08T22:40:27.294Z,100633.23
2019-03-08T22:42:55.479Z,100624.10
2019-03-08T22:45:23.921Z,100619.22
2019-03-08T22:47:52.119Z,100611.52
2019-03-08T22:50:20.666Z,100618.59
2019-03-08T22:52:48.863Z,100613.64
2019-03-08T22:55:17.029Z,100608.52
2019-03-08T22:57:45.225Z,100606.15
2019-03-08T23:00:54.010Z,100603.21
2019-03-08T23:03:23.837Z,100602.56
2019-03-08T23:05:52.261Z,100599.01
2019-03-08T23:08:20.442Z,100586.62
2019-03-08T23:10:48.789Z,100581.25
2019-03-08T23:13:16.973Z,100580.95
2019-03-08T23:15:45.435Z,100574.59
2019-03-08T23:18:13.622Z,100583.24
2019-03-08T23:20:41.809Z,100568.01
2019-03-08T23:23:10.334Z,100580.17
2019-03-08T23:25:38.511Z,100569.34
2019-03-08T23:28:17.409Z,100565.00
2019-03-08T23:30:47.239Z,100563.11
2019-03-08T23:33:15.406Z,100549.55
2019-03-08T23:35:43.601Z,100551.66
2019-03-08T23:38:12.078Z,100550.86
2019-03-08T23:40:40.266Z,100547.23
2019-03-08T23:43:08.761Z,100541.67
2019-03-08T23:45:37.314Z,100526.13
2019-03-08T23:48:05.853Z,100529.83
2019-03-08T23:50:34.047Z,100529.69
2019-03-08T23:53:02.244Z,100525.56
2019-03-08T23:55:30.419Z,100512.02
2019-03-08T23:57:58.606Z,100510.23
